Terminal Aerodrome Forecast
Issued by NWS

Home | Current Version | Previous Version | Text Only | Print | Product List | Glossary On
Versions: 1 2 3 4 5 6 7 8 9 10 11 12 13 14 15 16 17 18 19 20
441
FTUS44 KLUB 232333 AAA
TAFCDS
TAF AMD
KCDS 232333Z 2400/2424 09011KT 1SM BR OVC003
     FM240200 10005KT 1SM BR OVC003
     FM241700 25011KT P6SM SCT250=

USA.gov is the U.S. government's official web portal to all federal, state and local government web resources and services.